createdAt,value
2019-01-11T00:01:48.424Z,86.88
2019-01-11T00:04:17.840Z,86.90
2019-01-11T00:06:47.437Z,87.03
2019-01-11T00:09:17.603Z,87.17
2019-01-11T00:11:47.114Z,87.32
2019-01-11T00:14:16.696Z,87.58
2019-01-11T00:16:46.102Z,87.81
2019-01-11T00:19:18.544Z,87.91
2019-01-11T00:21:48.033Z,87.91
2019-01-11T00:24:17.539Z,87.83
2019-01-11T00:26:46.927Z,87.65
2019-01-11T00:29:16.348Z,87.53
2019-01-11T00:31:45.858Z,87.39
2019-01-11T00:34:15.349Z,87.13
2019-01-11T00:36:44.762Z,87.06
2019-01-11T00:39:14.152Z,87.10
2019-01-11T00:41:43.741Z,87.02
2019-01-11T00:44:13.218Z,86.86
2019-01-11T00:46:42.605Z,86.64
2019-01-11T00:49:13.619Z,86.55
2019-01-11T00:51:43.517Z,86.46
2019-01-11T00:54:12.934Z,86.18
2019-01-11T00:56:42.446Z,85.94
2019-01-11T00:59:11.937Z,85.86
2019-01-11T01:01:41.328Z,85.77
2019-01-11T01:04:10.850Z,85.66
2019-01-11T01:06:40.340Z,85.43
2019-01-11T01:09:10.148Z,85.33
2019-01-11T01:11:39.812Z,85.27
2019-01-11T01:14:09.334Z,85.15
2019-01-11T01:16:39.027Z,84.73
2019-01-11T01:19:08.649Z,84.11
2019-01-11T01:21:38.385Z,84.23
2019-01-11T01:24:07.894Z,84.33
2019-01-11T01:26:37.495Z,84.36
2019-01-11T01:29:06.998Z,84.24
2019-01-11T01:31:36.471Z,83.16
2019-01-11T01:34:06.055Z,83.15
2019-01-11T01:36:35.453Z,82.59
2019-01-11T01:39:06.676Z,82.03
2019-01-11T01:41:36.172Z,81.85
2019-01-11T01:44:05.764Z,81.18
2019-01-11T01:46:35.163Z,81.39
2019-01-11T01:49:04.791Z,80.46
2019-01-11T01:51:34.325Z,80.71
2019-01-11T01:54:04.316Z,80.66
2019-01-11T01:56:33.724Z,80.67
2019-01-11T01:59:03.241Z,80.49
2019-01-11T02:01:32.745Z,81.02
2019-01-11T02:04:02.245Z,81.17
2019-01-11T02:06:33.610Z,81.15
2019-01-11T02:09:03.639Z,81.28
2019-01-11T02:11:33.130Z,81.52
2019-01-11T02:14:02.567Z,81.68
2019-01-11T02:16:32.077Z,81.92
2019-01-11T02:19:01.572Z,82.27
2019-01-11T02:21:30.984Z,82.47
2019-01-11T02:24:00.412Z,82.64
2019-01-11T02:26:29.921Z,82.54
2019-01-11T02:28:59.444Z,82.44
2019-01-11T02:31:28.841Z,82.20
2019-01-11T02:33:58.261Z,82.36
2019-01-11T02:36:27.763Z,82.46
2019-01-11T02:38:57.276Z,82.80
2019-01-11T02:41:26.673Z,81.82
2019-01-11T02:43:56.074Z,81.45
2019-01-11T02:46:25.580Z,80.99
2019-01-11T02:48:55.148Z,80.72
2019-01-11T02:51:24.569Z,80.01
2019-01-11T02:53:54.074Z,79.33
2019-01-11T02:56:23.491Z,78.44
2019-01-11T02:58:52.897Z,78.27
2019-01-11T03:01:22.405Z,77.90
2019-01-11T03:03:51.944Z,77.01
2019-01-11T03:06:21.355Z,77.12
2019-01-11T03:08:50.768Z,77.33
2019-01-11T03:11:20.268Z,76.50
2019-01-11T03:13:49.776Z,76.38
2019-01-11T03:16:19.188Z,76.07
2019-01-11T03:18:48.608Z,75.85
2019-01-11T03:21:18.118Z,75.93
2019-01-11T03:23:47.599Z,75.78
2019-01-11T03:26:17.016Z,75.91
2019-01-11T03:28:46.438Z,75.95
2019-01-11T03:31:28.981Z,75.70
2019-01-11T03:33:58.393Z,75.52
2019-01-11T03:36:27.896Z,75.79
2019-01-11T03:38:57.387Z,75.96
2019-01-11T03:41:26.800Z,75.35
2019-01-11T03:43:56.229Z,75.20
2019-01-11T03:46:25.749Z,75.48
2019-01-11T03:48:56.510Z,75.37
2019-01-11T03:51:25.928Z,75.34
2019-01-11T03:53:57.647Z,75.17
2019-01-11T03:56:27.161Z,74.89
2019-01-11T03:58:56.648Z,75.07
2019-01-11T04:01:26.059Z,74.63
2019-01-11T04:03:55.567Z,75.03
2019-01-11T04:06:26.545Z,74.18
2019-01-11T04:08:56.034Z,73.70
2019-01-11T04:11:25.430Z,72.95
2019-01-11T04:13:55.410Z,73.62
2019-01-11T04:16:24.964Z,73.09
2019-01-11T04:19:01.608Z,73.28
2019-01-11T04:21:31.023Z,72.87
2019-01-11T04:24:00.428Z,72.51
2019-01-11T04:26:29.916Z,72.83
2019-01-11T04:28:59.396Z,73.11
2019-01-11T04:31:28.799Z,72.22
2019-01-11T04:33:58.220Z,72.60
2019-01-11T04:36:27.716Z,73.29
2019-01-11T04:38:57.216Z,72.75
2019-01-11T04:41:26.624Z,73.01
2019-01-11T04:43:56.042Z,72.30
2019-01-11T04:46:25.574Z,72.28
2019-01-11T04:48:55.058Z,72.56
2019-01-11T04:51:24.490Z,73.14
2019-01-11T04:53:54.061Z,73.59
2019-01-11T04:56:23.481Z,73.48
2019-01-11T04:58:52.962Z,73.33
2019-01-11T05:01:22.480Z,73.46
2019-01-11T05:03:51.952Z,73.19
2019-01-11T05:06:21.347Z,73.13
2019-01-11T05:08:50.757Z,73.31
2019-01-11T05:11:20.256Z,73.01
2019-01-11T05:13:53.777Z,73.07
2019-01-11T05:16:23.207Z,73.47
2019-01-11T05:18:52.637Z,73.56
2019-01-11T05:21:22.120Z,73.52
2019-01-11T05:23:51.664Z,73.39
2019-01-11T05:26:21.035Z,73.57
2019-01-11T05:28:50.437Z,73.65
2019-01-11T05:31:19.917Z,73.42
2019-01-11T05:33:49.330Z,72.29
2019-01-11T05:36:18.826Z,73.15
2019-01-11T05:38:48.324Z,73.34
2019-01-11T05:41:17.754Z,72.41
2019-01-11T05:43:47.161Z,72.68
2019-01-11T05:46:16.646Z,72.19
2019-01-11T05:48:46.138Z,71.81
2019-01-11T05:51:15.547Z,71.00
2019-01-11T05:53:44.975Z,70.84
2019-01-11T05:56:17.147Z,70.41
2019-01-11T05:58:53.465Z,70.15
2019-01-11T06:01:24.223Z,69.59
2019-01-11T06:03:53.718Z,69.96
2019-01-11T06:06:23.216Z,70.69
2019-01-11T06:08:52.761Z,70.12
2019-01-11T06:11:22.127Z,69.79
2019-01-11T06:13:51.620Z,69.67
2019-01-11T06:16:21.027Z,68.92
2019-01-11T06:18:50.449Z,68.94
2019-01-11T06:21:19.991Z,68.71
2019-01-11T06:23:49.486Z,69.02
2019-01-11T06:26:18.891Z,69.19
2019-01-11T06:28:48.318Z,69.18
2019-01-11T06:31:17.820Z,69.04
2019-01-11T06:33:47.311Z,69.10
2019-01-11T06:36:16.720Z,68.12
2019-01-11T06:38:46.151Z,68.46
2019-01-11T06:41:15.661Z,67.73
2019-01-11T06:43:46.822Z,67.96
2019-01-11T06:46:16.220Z,68.70
2019-01-11T06:48:45.641Z,69.09
2019-01-11T06:51:15.133Z,69.83
2019-01-11T06:53:44.631Z,70.17
2019-01-11T06:56:14.043Z,69.66
2019-01-11T06:58:43.466Z,70.29
2019-01-11T07:01:12.976Z,70.33
2019-01-11T07:03:42.492Z,70.24
2019-01-11T07:06:12.403Z,70.77
2019-01-11T07:08:42.329Z,71.36
2019-01-11T07:11:11.836Z,70.94
2019-01-11T07:13:41.541Z,71.10
2019-01-11T07:16:11.040Z,71.38
2019-01-11T07:18:40.557Z,72.14
2019-01-11T07:21:10.431Z,71.97
2019-01-11T07:23:40.144Z,71.80
2019-01-11T07:26:09.638Z,71.83
2019-01-11T07:28:39.085Z,71.40
2019-01-11T07:31:15.846Z,71.57
2019-01-11T07:33:45.438Z,71.83
2019-01-11T07:36:40.204Z,71.31
2019-01-11T07:39:29.904Z,71.23
2019-01-11T07:41:59.292Z,71.30
2019-01-11T07:44:28.894Z,71.73
2019-01-11T07:46:59.470Z,71.74
2019-01-11T07:49:29.065Z,70.94
2019-01-11T07:51:58.478Z,70.18
2019-01-11T07:54:27.904Z,69.63
2019-01-11T07:56:58.208Z,68.65
2019-01-11T07:59:27.683Z,68.67
2019-01-11T08:01:57.101Z,68.91
2019-01-11T08:04:26.512Z,68.72
2019-01-11T08:06:56.007Z,69.06
2019-01-11T08:09:25.523Z,69.42
2019-01-11T08:11:55.017Z,69.18
2019-01-11T08:14:24.598Z,69.04
2019-01-11T08:16:54.011Z,69.33
2019-01-11T08:19:23.434Z,69.37
2019-01-11T08:21:52.930Z,69.17
2019-01-11T08:24:22.423Z,69.05
2019-01-11T08:26:51.910Z,69.08
2019-01-11T08:29:21.337Z,69.08
2019-01-11T08:31:50.841Z,69.16
2019-01-11T08:34:20.389Z,69.77
2019-01-11T08:36:49.748Z,69.26
2019-01-11T08:39:19.182Z,69.43
2019-01-11T08:41:48.669Z,69.40
2019-01-11T08:44:18.166Z,68.84
2019-01-11T08:46:47.564Z,68.39
2019-01-11T08:49:17.053Z,68.07
2019-01-11T08:51:46.552Z,67.80
2019-01-11T08:54:15.987Z,66.00
2019-01-11T08:56:45.755Z,64.55
2019-01-11T08:59:15.310Z,63.39
2019-01-11T09:01:44.715Z,61.92
2019-01-11T09:04:14.176Z,58.64
2019-01-11T09:06:43.673Z,56.51
2019-01-11T09:09:13.153Z,55.44
2019-01-11T09:11:42.554Z,55.27
2019-01-11T09:14:28.115Z,55.43
2019-01-11T09:16:57.628Z,53.49
2019-01-11T09:19:27.110Z,53.25
2019-01-11T09:21:56.518Z,53.16
2019-01-11T09:24:26.006Z,51.84
2019-01-11T09:26:55.507Z,51.47
2019-01-11T09:29:25.415Z,52.02
2019-01-11T09:31:54.869Z,52.88
2019-01-11T09:34:25.222Z,53.55
2019-01-11T09:36:57.527Z,52.87
2019-01-11T09:39:26.978Z,53.11
2019-01-11T09:41:56.370Z,54.94
2019-01-11T09:44:25.934Z,54.47
2019-01-11T09:46:55.452Z,54.77
2019-01-11T09:49:24.889Z,55.00
2019-01-11T09:51:54.304Z,55.61
2019-01-11T09:54:23.756Z,55.05
2019-01-11T09:56:53.316Z,54.97
2019-01-11T09:59:22.768Z,55.58
2019-01-11T10:02:09.989Z,54.41
2019-01-11T10:04:41.254Z,54.84
2019-01-11T10:07:29.695Z,53.30
2019-01-11T10:09:59.138Z,53.01
2019-01-11T10:12:28.592Z,53.31
2019-01-11T10:14:58.039Z,52.94
2019-01-11T10:17:27.427Z,52.32
2019-01-11T10:19:56.988Z,51.74
2019-01-11T10:22:26.548Z,52.59
2019-01-11T10:24:55.981Z,52.65
2019-01-11T10:27:25.383Z,52.17
2019-01-11T10:29:54.827Z,52.09
2019-01-11T10:32:24.339Z,51.89
2019-01-11T10:34:53.798Z,51.94
2019-01-11T10:37:23.212Z,51.19
2019-01-11T10:39:53.135Z,50.01
2019-01-11T10:42:22.635Z,47.89
2019-01-11T10:44:52.087Z,47.57
2019-01-11T10:47:21.506Z,49.36
2019-01-11T10:49:53.245Z,49.68
2019-01-11T10:52:22.695Z,49.01
2019-01-11T10:54:52.166Z,47.91
2019-01-11T10:57:21.684Z,46.63
2019-01-11T10:59:51.134Z,45.81
2019-01-11T11:02:20.547Z,46.12
2019-01-11T11:04:50.074Z,46.66
2019-01-11T11:07:19.598Z,44.68
2019-01-11T11:09:49.037Z,44.46
2019-01-11T11:12:18.447Z,44.76
2019-01-11T11:14:48.102Z,41.53
2019-01-11T11:17:17.603Z,40.12
2019-01-11T11:19:47.060Z,39.49
2019-01-11T11:22:18.531Z,38.19
2019-01-11T11:24:47.985Z,37.29
2019-01-11T11:27:17.494Z,35.62
2019-01-11T11:29:46.964Z,34.07
2019-01-11T11:32:18.077Z,33.47
2019-01-11T11:34:48.313Z,32.73
2019-01-11T11:37:18.889Z,33.28
2019-01-11T11:39:48.338Z,34.55
2019-01-11T11:42:17.828Z,33.03
2019-01-11T11:44:47.269Z,31.55
2019-01-11T11:47:16.661Z,30.29
2019-01-11T11:49:46.118Z,27.36
2019-01-11T11:52:15.634Z,25.97
2019-01-11T11:54:45.071Z,25.66
2019-01-11T11:57:14.475Z,24.75
2019-01-11T11:59:43.917Z,23.65
2019-01-11T12:02:19.205Z,25.43
2019-01-11T12:04:44.608Z,24.05
2019-01-11T12:07:14.003Z,23.04
2019-01-11T12:09:43.456Z,22.59
2019-01-11T12:12:12.916Z,22.46
2019-01-11T12:14:42.370Z,22.99
2019-01-11T12:17:11.882Z,22.99
2019-01-11T12:19:41.327Z,23.16
2019-01-11T12:22:10.738Z,22.97
2019-01-11T12:24:40.183Z,22.31
2019-01-11T12:27:09.679Z,21.77
2019-01-11T12:29:39.136Z,21.65
2019-01-11T12:32:08.546Z,21.49
2019-01-11T12:34:38.079Z,23.39
2019-01-11T12:37:07.589Z,23.69
2019-01-11T12:39:37.036Z,24.71
2019-01-11T12:42:06.453Z,26.47
2019-01-11T12:44:35.910Z,28.64
2019-01-11T12:47:05.420Z,31.30
2019-01-11T12:49:34.867Z,33.37
2019-01-11T12:52:07.112Z,35.15
2019-01-11T12:54:36.617Z,36.53
2019-01-11T12:57:06.008Z,38.33
2019-01-11T12:59:37.088Z,39.46
2019-01-11T13:02:06.818Z,40.73
2019-01-11T13:04:36.272Z,41.40
2019-01-11T13:07:05.664Z,42.06
2019-01-11T13:09:35.132Z,43.03
2019-01-11T13:12:04.868Z,42.92
2019-01-11T13:14:36.073Z,43.19
2019-01-11T13:17:05.615Z,43.63
2019-01-11T13:19:35.141Z,44.43
2019-01-11T13:22:04.759Z,45.54
2019-01-11T13:24:34.237Z,45.55
2019-01-11T13:27:03.660Z,46.31
2019-01-11T13:29:33.140Z,46.88
2019-01-11T13:32:02.623Z,46.88
2019-01-11T13:34:32.887Z,47.32
2019-01-11T13:37:02.513Z,47.95
2019-01-11T13:39:31.998Z,48.07
2019-01-11T13:42:01.418Z,48.40
2019-01-11T13:44:30.912Z,48.40
2019-01-11T13:47:00.432Z,48.40
2019-01-11T13:49:29.919Z,49.25
2019-01-11T13:51:59.344Z,49.48
2019-01-11T13:54:28.826Z,49.41
2019-01-11T13:56:58.352Z,49.96
2019-01-11T13:59:27.835Z,50.47
2019-01-11T14:01:57.269Z,50.21
2019-01-11T14:04:26.863Z,50.71
2019-01-11T14:06:56.376Z,51.17
2019-01-11T14:09:25.857Z,51.06
2019-01-11T14:11:55.340Z,51.00
2019-01-11T14:14:24.819Z,51.49
2019-01-11T14:16:54.372Z,51.51
2019-01-11T14:19:23.914Z,51.90
2019-01-11T14:21:53.435Z,52.34
2019-01-11T14:24:22.948Z,52.96
2019-01-11T14:26:52.556Z,53.30
2019-01-11T14:29:22.059Z,53.02
2019-01-11T14:31:51.587Z,53.20
2019-01-11T14:34:21.063Z,53.59
2019-01-11T14:36:50.502Z,53.83
2019-01-11T14:39:20.217Z,54.55
2019-01-11T14:41:50.125Z,55.12
2019-01-11T14:44:19.602Z,56.20
2019-01-11T14:46:51.824Z,56.84
2019-01-11T14:49:21.340Z,57.50
2019-01-11T14:51:50.895Z,57.80
2019-01-11T14:54:20.415Z,57.97
2019-01-11T14:56:49.949Z,58.90
2019-01-11T14:59:21.847Z,59.55
2019-01-11T15:01:58.467Z,59.52
2019-01-11T15:04:27.947Z,59.79
2019-01-11T15:06:57.374Z,59.38
2019-01-11T15:09:26.855Z,59.59
2019-01-11T15:11:56.389Z,59.84
2019-01-11T15:14:25.867Z,59.99
2019-01-11T15:16:55.305Z,60.03
2019-01-11T15:19:24.806Z,59.92
2019-01-11T15:21:54.680Z,59.97
2019-01-11T15:24:24.168Z,60.04
2019-01-11T15:26:54.613Z,60.29
2019-01-11T15:29:24.092Z,60.38
2019-01-11T15:31:53.573Z,60.24
2019-01-11T15:34:25.852Z,60.29
2019-01-11T15:36:55.448Z,60.32
2019-01-11T15:39:24.929Z,60.58
2019-01-11T15:41:54.383Z,60.65
2019-01-11T15:44:23.897Z,60.50
2019-01-11T15:46:53.415Z,60.35
2019-01-11T15:49:22.906Z,60.15
2019-01-11T15:51:52.341Z,60.10
2019-01-11T15:54:21.829Z,60.01
2019-01-11T15:56:51.461Z,60.46
2019-01-11T15:59:20.947Z,60.78
2019-01-11T16:01:54.838Z,61.18
2019-01-11T16:04:24.323Z,61.14
2019-01-11T16:06:54.245Z,61.62
2019-01-11T16:10:13.795Z,62.05
2019-01-11T16:13:21.270Z,62.26
2019-01-11T16:16:19.538Z,61.92
2019-01-11T16:18:49.238Z,61.55
2019-01-11T16:21:18.701Z,61.92
2019-01-11T16:23:48.203Z,62.73
2019-01-11T16:26:17.666Z,62.43
2019-01-11T16:28:47.067Z,62.10
2019-01-11T16:31:16.635Z,63.03
2019-01-11T16:33:46.151Z,63.37
2019-01-11T16:36:15.981Z,63.00
2019-01-11T16:38:45.385Z,63.11
2019-01-11T16:41:14.875Z,63.10
2019-01-11T16:43:44.483Z,62.68
2019-01-11T16:46:13.924Z,62.63
2019-01-11T16:48:44.838Z,62.28
2019-01-11T16:51:14.291Z,62.12
2019-01-11T16:53:44.023Z,62.48
2019-01-11T16:56:13.803Z,62.65
2019-01-11T16:58:43.390Z,62.96
2019-01-11T17:01:12.825Z,62.63
2019-01-11T17:03:42.624Z,62.65
2019-01-11T17:06:16.298Z,62.98
2019-01-11T17:08:45.844Z,63.20
2019-01-11T17:11:17.694Z,63.23
2019-01-11T17:13:47.135Z,63.47
2019-01-11T17:16:16.740Z,63.31
2019-01-11T17:18:46.699Z,63.59
2019-01-11T17:21:16.214Z,63.78
2019-01-11T17:23:45.735Z,63.88
2019-01-11T17:26:15.217Z,63.97
2019-01-11T17:28:44.803Z,64.03
2019-01-11T17:31:14.441Z,63.91
2019-01-11T17:33:45.153Z,63.94
2019-01-11T17:36:17.524Z,64.11
2019-01-11T17:38:47.034Z,64.35
2019-01-11T17:41:16.786Z,64.64
2019-01-11T17:43:47.363Z,64.84
2019-01-11T17:46:17.948Z,64.79
2019-01-11T17:48:47.418Z,64.99
2019-01-11T17:51:16.897Z,65.07
2019-01-11T17:53:46.794Z,65.27
2019-01-11T17:56:16.356Z,64.97
2019-01-11T17:58:45.838Z,65.01
2019-01-11T18:01:15.509Z,65.11
2019-01-11T18:03:45.102Z,64.87
2019-01-11T18:06:14.667Z,64.94
2019-01-11T18:08:44.088Z,64.96
2019-01-11T18:11:13.560Z,64.83
2019-01-11T18:13:43.059Z,64.68
2019-01-11T18:16:12.519Z,64.66
2019-01-11T18:18:42.054Z,64.30
2019-01-11T18:21:14.178Z,64.30
2019-01-11T18:23:43.610Z,63.77
2019-01-11T18:26:13.063Z,63.74
2019-01-11T18:28:42.621Z,63.78
2019-01-11T18:31:15.620Z,63.97
2019-01-11T18:33:46.418Z,63.55
2019-01-11T18:36:15.868Z,63.58
2019-01-11T18:38:45.358Z,63.68
2019-01-11T18:41:14.803Z,63.62
2019-01-11T18:43:44.219Z,63.53
2019-01-11T18:46:15.970Z,63.80
2019-01-11T18:48:45.493Z,63.66
2019-01-11T18:51:14.946Z,63.81
2019-01-11T18:53:44.454Z,64.01
2019-01-11T18:56:13.909Z,64.25
2019-01-11T18:58:43.314Z,64.35
2019-01-11T19:01:12.825Z,64.27
2019-01-11T19:03:42.333Z,64.16
2019-01-11T19:06:15.742Z,64.15
2019-01-11T19:08:45.195Z,64.24
2019-01-11T19:11:14.674Z,64.39
2019-01-11T19:13:44.618Z,64.60
2019-01-11T19:16:14.185Z,64.95
2019-01-11T19:18:43.605Z,64.80
2019-01-11T19:21:14.503Z,64.00
2019-01-11T19:23:44.010Z,63.77
2019-01-11T19:26:13.569Z,63.58
2019-01-11T19:28:44.815Z,63.58
2019-01-11T19:31:14.317Z,63.17
2019-01-11T19:33:43.732Z,63.25
2019-01-11T19:36:13.238Z,62.74
2019-01-11T19:38:45.567Z,62.79
2019-01-11T19:41:15.040Z,62.58
2019-01-11T19:43:44.472Z,62.41
2019-01-11T19:46:13.927Z,62.23
2019-01-11T19:48:43.474Z,62.14
2019-01-11T19:51:13.317Z,62.21
2019-01-11T19:53:42.841Z,61.97
2019-01-11T19:56:12.603Z,62.24
2019-01-11T19:58:42.512Z,62.10
2019-01-11T20:01:12.349Z,62.01
2019-01-11T20:03:41.769Z,61.98
2019-01-11T20:06:11.394Z,62.07
2019-01-11T20:08:40.903Z,61.68
2019-01-11T20:11:12.623Z,61.75
2019-01-11T20:13:42.007Z,61.42
2019-01-11T20:16:11.600Z,61.31
2019-01-11T20:18:41.112Z,61.42
2019-01-11T20:21:10.783Z,61.27
2019-01-11T20:23:40.191Z,61.19
2019-01-11T20:26:10.025Z,61.49
2019-01-11T20:28:39.661Z,61.15
2019-01-11T20:31:09.358Z,61.03
2019-01-11T20:33:38.894Z,60.80
2019-01-11T20:36:08.344Z,61.11
2019-01-11T20:38:39.866Z,60.65
2019-01-11T20:41:09.167Z,60.82
2019-01-11T20:43:40.861Z,60.41
2019-01-11T20:46:10.310Z,60.45
2019-01-11T20:48:39.852Z,59.82
2019-01-11T20:51:09.285Z,59.99
2019-01-11T20:53:41.831Z,59.85
2019-01-11T20:56:09.933Z,59.95
2019-01-11T20:58:39.354Z,59.83
2019-01-11T21:01:08.987Z,59.54
2019-01-11T21:03:38.480Z,59.59
2019-01-11T21:06:08.713Z,59.59
2019-01-11T21:08:38.139Z,59.24
2019-01-11T21:11:07.798Z,58.88
2019-01-11T21:13:37.303Z,59.04
2019-01-11T21:16:08.895Z,59.25
2019-01-11T21:18:38.312Z,58.66
2019-01-11T21:21:07.833Z,58.54
2019-01-11T21:23:37.730Z,58.19
2019-01-11T21:26:07.285Z,58.16
2019-01-11T21:28:36.666Z,57.96
2019-01-11T21:31:06.159Z,58.19
2019-01-11T21:33:35.610Z,58.35
2019-01-11T21:36:05.169Z,58.01
2019-01-11T21:38:34.690Z,57.55
2019-01-11T21:41:04.133Z,57.98
2019-01-11T21:43:33.560Z,58.79
2019-01-11T21:46:03.585Z,58.52
2019-01-11T21:48:33.273Z,58.74
2019-01-11T21:51:02.706Z,58.51
2019-01-11T21:53:32.115Z,58.80
2019-01-11T21:56:01.581Z,58.33
2019-01-11T21:58:31.068Z,59.34
2019-01-11T22:01:00.517Z,59.12
2019-01-11T22:03:30.500Z,58.89
2019-01-11T22:05:59.956Z,58.94
2019-01-11T22:08:29.471Z,58.78
2019-01-11T22:10:59.016Z,58.67
2019-01-11T22:13:28.451Z,58.88
2019-01-11T22:15:57.921Z,58.71
2019-01-11T22:18:27.309Z,58.81
2019-01-11T22:20:56.772Z,58.90
2019-01-11T22:23:26.267Z,58.78
2019-01-11T22:25:55.721Z,58.91
2019-01-11T22:28:25.121Z,59.06
2019-01-11T22:30:56.494Z,59.02
2019-01-11T22:33:25.994Z,59.41
2019-01-11T22:35:55.435Z,59.43
2019-01-11T22:38:24.850Z,59.04
2019-01-11T22:40:54.304Z,59.25
2019-01-11T22:43:23.790Z,58.45
2019-01-11T22:45:53.264Z,58.08
2019-01-11T22:48:22.657Z,58.23
2019-01-11T22:50:52.111Z,58.33
2019-01-11T22:53:21.557Z,58.01
2019-01-11T22:55:51.020Z,58.45
2019-01-11T22:58:20.520Z,58.44
2019-01-11T23:01:37.289Z,58.43
2019-01-11T23:04:06.694Z,58.91
2019-01-11T23:06:58.291Z,58.76
2019-01-11T23:09:33.503Z,58.61
2019-01-11T23:12:16.279Z,58.31
2019-01-11T23:14:45.665Z,58.39
2019-01-11T23:17:44.167Z,58.00
2019-01-11T23:20:14.844Z,58.21
2019-01-11T23:22:44.385Z,58.06
2019-01-11T23:25:14.871Z,57.97
2019-01-11T23:27:44.309Z,58.28
2019-01-11T23:30:16.755Z,57.96
2019-01-11T23:32:46.282Z,58.29
2019-01-11T23:35:15.855Z,58.17
2019-01-11T23:37:45.551Z,58.16
2019-01-11T23:40:17.095Z,58.23
2019-01-11T23:42:46.543Z,58.21
2019-01-11T23:45:16.471Z,58.32
2019-01-11T23:47:46.232Z,58.47
2019-01-11T23:50:17.501Z,58.34
2019-01-11T23:52:46.939Z,58.48
2019-01-11T23:55:16.563Z,58.37
2019-01-11T23:57:46.088Z,58.39
